Time;durP1;ratioP1;P1;durP2;ratioP2;P2;SDS_P1;SDS_P2;PMS_P1;PMS_P2;Temp;Humidity;BMP_temperature;BMP_pressure;BME280_temperature;BME280_humidity;BME280_pressure;Samples;Min_cycle;Max_cycle;Signal;HPM_P1;HPM_P2
2021/01/28 00:02:19;;;;;;;71.50;28.20;;;;;;;6.00;100.00;100584.34;5039112;28;20519;-72
2021/01/28 00:04:45;;;;;;;76.80;28.23;;;;;;;5.90;100.00;100588.41;5038911;28;20041;-72
2021/01/28 00:07:10;;;;;;;78.13;28.70;;;;;;;5.81;100.00;100583.47;5038994;28;20068;-72
2021/01/28 00:09:35;;;;;;;76.07;28.13;;;;;;;5.82;100.00;100579.88;5042580;28;20112;-71
2021/01/28 00:12:01;;;;;;;73.05;27.27;;;;;;;5.76;100.00;100577.50;5047576;28;20039;-72
2021/01/28 00:14:27;;;;;;;71.53;27.30;;;;;;;5.76;100.00;100567.72;5046888;28;20033;-71
2021/01/28 00:16:52;;;;;;;76.57;27.15;;;;;;;5.74;100.00;100561.59;5045360;28;20211;-71
2021/01/28 00:19:18;;;;;;;69.32;26.27;;;;;;;5.85;100.00;100558.44;5045961;28;20036;-71
2021/01/28 00:21:43;;;;;;;68.50;27.52;;;;;;;5.82;100.00;100553.25;5061135;28;20122;-71
2021/01/28 00:24:09;;;;;;;80.05;27.33;;;;;;;5.72;100.00;100554.63;5045464;28;20279;-72
2021/01/28 00:26:34;;;;;;;75.70;27.25;;;;;;;5.75;100.00;100549.13;5047409;28;20040;-72
2021/01/28 00:29:00;;;;;;;69.63;25.48;;;;;;;5.68;100.00;100546.75;5045993;28;20036;-71
2021/01/28 00:31:27;;;;;;;81.40;28.80;;;;;;;5.83;100.00;100549.66;5046586;28;20115;-71
2021/01/28 00:33:53;;;;;;;76.28;27.63;;;;;;;5.73;100.00;100548.38;5044015;28;20406;-72
2021/01/28 00:36:19;;;;;;;68.22;26.85;;;;;;;5.68;100.00;100541.44;5047545;28;20024;-71
2021/01/28 00:38:44;;;;;;;89.03;28.60;;;;;;;5.64;100.00;100545.19;5047361;28;20528;-71
2021/01/28 00:41:10;;;;;;;73.43;26.92;;;;;;;5.77;100.00;100532.16;5047291;28;20027;-71
2021/01/28 00:43:36;;;;;;;75.03;28.00;;;;;;;5.65;100.00;100536.28;5046049;28;20506;-72
2021/01/28 00:46:04;;;;;;;71.60;24.48;;;;;;;5.77;100.00;100517.97;5044704;28;20470;-71
2021/01/28 00:48:29;;;;;;;68.20;26.08;;;;;;;5.82;100.00;100505.28;5047167;28;20437;-71
2021/01/28 00:50:57;;;;;;;73.05;25.98;;;;;;;5.68;100.00;100496.16;5047819;28;20028;-71
2021/01/28 00:53:23;;;;;;;76.50;24.55;;;;;;;5.65;100.00;100499.00;5046655;28;20033;-72
2021/01/28 00:55:48;;;;;;;70.47;26.25;;;;;;;5.65;100.00;100483.00;5044404;28;20036;-72
2021/01/28 00:58:27;;;;;;;72.75;25.70;;;;;;;5.73;100.00;100480.00;5044871;28;20043;-71
2021/01/28 01:00:55;;;;;;;71.78;23.55;;;;;;;5.66;100.00;100481.22;5046650;28;20024;-72
2021/01/28 01:03:23;;;;;;;68.57;25.17;;;;;;;5.66;100.00;100474.09;5058712;28;20116;-71
2021/01/28 01:05:50;;;;;;;73.20;24.88;;;;;;;5.66;100.00;100478.56;5062048;28;20040;-72
2021/01/28 01:08:24;;;;;;;66.68;25.85;;;;;;;5.69;100.00;100486.38;5043866;28;20672;-71
2021/01/28 01:10:58;;;;;;;69.20;26.33;;;;;;;5.75;100.00;100482.56;5041003;28;20116;-71
2021/01/28 01:13:27;;;;;;;68.72;24.63;;;;;;;5.69;100.00;100489.91;5046400;28;20029;-71
2021/01/28 01:16:05;;;;;;;62.80;24.45;;;;;;;5.72;100.00;100496.03;5051668;28;20033;-72
2021/01/28 01:18:32;;;;;;;55.40;24.02;;;;;;;5.82;100.00;100490.19;5060937;28;20033;-71
2021/01/28 01:20:59;;;;;;;61.13;24.30;;;;;;;5.69;100.00;100489.91;5048496;28;20033;-72
2021/01/28 01:23:28;;;;;;;60.00;22.95;;;;;;;5.61;100.00;100484.09;5045641;28;20128;-71
2021/01/28 01:26:07;;;;;;;70.05;23.48;;;;;;;5.73;100.00;100474.66;5035475;28;20022;-72
2021/01/28 01:28:32;;;;;;;58.58;23.20;;;;;;;5.74;100.00;100475.53;5049288;28;20070;-72
2021/01/28 01:31:04;;;;;;;62.63;23.42;;;;;;;5.82;100.00;100484.00;5047847;28;20444;-71
2021/01/28 01:33:32;;;;;;;56.45;24.08;;;;;;;5.75;100.00;100475.44;5061712;28;20067;-72
2021/01/28 01:36:03;;;;;;;61.05;23.85;;;;;;;5.80;100.00;100469.91;5062603;28;20029;-72
2021/01/28 01:38:31;;;;;;;62.13;22.85;;;;;;;5.69;100.00;100463.28;5047930;28;20250;-72
2021/01/28 01:40:58;;;;;;;59.20;24.30;;;;;;;5.73;100.00;100449.84;5046882;28;20025;-72
2021/01/28 01:43:26;;;;;;;66.55;25.00;;;;;;;5.74;100.00;100432.91;5044864;28;20029;-72
2021/01/28 01:45:56;;;;;;;68.47;23.35;;;;;;;5.70;100.00;100425.06;5050126;28;20112;-71
2021/01/28 01:48:28;;;;;;;66.38;23.67;;;;;;;5.67;100.00;100427.91;5049412;28;20098;-71
2021/01/28 01:51:15;;;;;;;72.10;25.15;;;;;;;5.66;100.00;100414.66;5036999;28;20527;-71
2021/01/28 01:53:50;;;;;;;65.60;23.73;;;;;;;5.62;100.00;100424.56;5044092;28;20128;-72
2021/01/28 01:56:32;;;;;;;62.35;23.65;;;;;;;5.70;100.00;100414.41;5046564;28;20079;-71
2021/01/28 01:59:06;;;;;;;63.42;22.92;;;;;;;5.66;100.00;100404.88;5061907;28;20599;-72
2021/01/28 02:02:02;;;;;;;71.63;23.63;;;;;;;5.62;100.00;100403.28;5045421;28;20048;-72
2021/01/28 02:04:53;;;;;;;56.17;22.40;;;;;;;5.70;100.00;100411.75;5046151;28;20111;-71
2021/01/28 02:07:48;;;;;;;71.78;23.50;;;;;;;5.64;100.00;100398.75;5046298;28;20063;-71
2021/01/28 02:10:52;;;;;;;67.53;23.65;;;;;;;5.74;100.00;100390.31;4965672;28;20050;-71
2021/01/28 02:13:51;;;;;;;68.95;23.30;;;;;;;5.77;100.00;100379.50;4912612;28;20147;-71
2021/01/28 02:17:01;;;;;;;;;;;;;;;5.72;100.00;100382.41;5027996;28;20037;-72
2021/01/28 02:19:52;;;;;;;62.60;22.00;;;;;;;5.67;100.00;100393.28;5045767;28;20067;-72
2021/01/28 02:22:46;;;;;;;75.18;24.08;;;;;;;5.63;100.00;100386.38;5043907;28;20035;-71
2021/01/28 02:25:27;;;;;;;81.70;24.00;;;;;;;5.66;100.00;100385.38;5060798;28;20115;-71
2021/01/28 02:28:04;;;;;;;83.05;24.25;;;;;;;5.70;100.00;100371.81;5047816;28;20565;-72
2021/01/28 02:30:42;;;;;;;63.40;21.75;;;;;;;5.67;100.00;100363.13;5031332;28;20406;-72
2021/01/28 02:33:12;;;;;;;68.78;23.08;;;;;;;5.63;100.00;100351.75;5048432;28;20025;-72
2021/01/28 02:35:55;;;;;;;71.97;23.33;;;;;;;5.68;100.00;100352.38;5049069;28;20079;-71
2021/01/28 02:38:23;;;;;;;77.25;23.92;;;;;;;5.79;100.00;100343.88;5052545;28;20041;-71
2021/01/28 02:40:55;;;;;;;69.40;23.08;;;;;;;5.65;100.00;100339.22;5061354;28;20029;-72
2021/01/28 02:43:41;;;;;;;77.47;23.67;;;;;;;5.70;100.00;100331.88;5064470;28;20345;-71
2021/01/28 02:46:26;;;;;;;79.40;23.58;;;;;;;5.93;100.00;100327.19;5048234;28;20485;-72
2021/01/28 02:48:57;;;;;;;68.07;23.00;;;;;;;5.83;100.00;100310.81;5045657;28;20036;-72
2021/01/28 02:51:37;;;;;;;65.25;22.95;;;;;;;5.73;100.00;100308.69;5049084;28;20112;-71
2021/01/28 02:54:05;;;;;;;73.32;21.40;;;;;;;5.70;100.00;100307.91;5040851;28;20036;-71
2021/01/28 02:56:34;;;;;;;66.25;20.73;;;;;;;5.71;100.00;100295.47;5045075;28;20035;-71
2021/01/28 02:59:06;;;;;;;68.00;21.65;;;;;;;5.70;100.00;100288.41;5064323;28;20372;-72
2021/01/28 03:01:37;;;;;;;72.72;22.10;;;;;;;5.65;100.00;100280.66;5066643;28;20513;-72
2021/01/28 03:04:03;;;;;;;82.60;22.33;;;;;;;5.70;100.00;100283.94;5046963;28;20028;-72
2021/01/28 03:06:29;;;;;;;74.85;21.27;;;;;;;5.63;100.00;100287.00;5064472;28;20037;-73
2021/01/28 03:08:57;;;;;;;70.28;21.38;;;;;;;5.61;100.00;100284.44;5047979;28;20440;-72
2021/01/28 03:11:41;;;;;;;56.75;21.35;;;;;;;5.67;100.00;100273.47;5048355;28;20174;-72
2021/01/28 03:14:15;;;;;;;75.63;20.77;;;;;;;5.77;100.00;100273.84;5048121;28;20059;-72
2021/01/28 03:16:45;;;;;;;69.97;21.98;;;;;;;5.69;100.00;100273.38;5047352;28;20025;-71
2021/01/28 03:19:18;;;;;;;60.97;19.63;;;;;;;5.63;100.00;100277.19;5043145;28;20029;-73
2021/01/28 03:21:44;;;;;;;67.57;21.70;;;;;;;5.69;100.00;100281.34;5048199;28;20399;-72
2021/01/28 03:24:48;;;;;;;60.15;20.88;;;;;;;5.66;100.00;100266.41;4992170;28;20096;-72
2021/01/28 03:27:16;;;;;;;57.97;20.80;;;;;;;5.85;100.00;100262.81;5004105;28;20038;-71
2021/01/28 03:29:43;;;;;;;54.40;18.58;;;;;;;5.91;100.00;100266.03;5028165;28;20049;-71
2021/01/28 03:32:08;;;;;;;55.30;20.48;;;;;;;5.81;100.00;100258.56;5042131;28;20036;-72
2021/01/28 03:34:35;;;;;;;48.97;20.55;;;;;;;5.81;100.00;100247.91;5054753;28;20036;-72
2021/01/28 03:37:02;;;;;;;57.30;20.70;;;;;;;5.74;100.00;100251.84;5072050;28;20032;-71
2021/01/28 03:39:33;;;;;;;55.30;19.55;;;;;;;5.71;100.00;100255.53;5045117;28;20131;-71
2021/01/28 03:41:58;;;;;;;55.95;19.95;;;;;;;5.68;100.00;100253.88;5032299;28;20815;-72
2021/01/28 03:44:24;;;;;;;51.05;19.00;;;;;;;5.73;100.00;100244.78;5053349;28;20470;-71
2021/01/28 03:46:51;;;;;;;59.10;20.95;;;;;;;5.76;100.00;100242.81;5061144;28;20043;-71
2021/01/28 03:49:21;;;;;;;54.63;18.75;;;;;;;5.70;100.00;100233.34;5046572;28;20060;-71
2021/01/28 03:51:53;;;;;;;48.72;18.30;;;;;;;5.79;100.00;100236.50;5048738;28;20066;-72
2021/01/28 03:54:39;;;;;;;58.15;20.13;;;;;;;5.76;100.00;100223.31;5042943;28;20655;-72
2021/01/28 03:57:11;;;;;;;49.38;19.65;;;;;;;5.73;100.00;100228.81;5041878;28;20086;-72
2021/01/28 03:59:46;;;;;;;61.05;20.45;;;;;;;5.72;100.00;100227.09;5046668;28;20040;-72
2021/01/28 04:02:29;;;;;;;50.45;18.13;;;;;;;5.83;100.00;100222.06;5057704;28;20044;-72
2021/01/28 04:05:25;;;;;;;63.67;19.70;;;;;;;5.83;100.00;100214.06;5051833;28;20127;-72
2021/01/28 04:08:09;;;;;;;58.65;18.17;;;;;;;5.79;100.00;100213.38;5041898;28;20059;-71
2021/01/28 04:10:51;;;;;;;48.45;18.92;;;;;;;5.84;100.00;100207.81;5060321;28;20036;-71
2021/01/28 04:13:17;;;;;;;57.20;18.48;;;;;;;5.83;100.00;100204.28;5063408;28;20327;-71
2021/01/28 04:15:47;;;;;;;57.40;18.88;;;;;;;5.83;100.00;100203.41;5048445;28;20060;-72
2021/01/28 04:18:18;;;;;;;49.13;18.67;;;;;;;5.83;100.00;100196.28;5042215;28;20498;-71
2021/01/28 04:20:48;;;;;;;60.78;20.80;;;;;;;5.85;100.00;100190.88;5029878;28;20050;-72
2021/01/28 04:23:15;;;;;;;51.08;18.95;;;;;;;5.99;100.00;100177.69;5045791;28;20052;-71
2021/01/28 04:26:02;;;;;;;43.97;16.98;;;;;;;5.94;100.00;100161.13;5044163;28;20033;-72
2021/01/28 04:28:29;;;;;;;48.50;18.00;;;;;;;5.93;100.00;100162.91;5030345;28;20075;-72
2021/01/28 04:31:09;;;;;;;49.08;18.35;;;;;;;5.91;100.00;100158.63;5048323;28;20056;-72
2021/01/28 04:33:35;;;;;;;47.10;19.40;;;;;;;5.82;100.00;100151.09;5044156;28;20064;-72
2021/01/28 04:36:27;;;;;;;51.80;19.93;;;;;;;5.83;100.00;100145.69;5044856;28;20095;-72
2021/01/28 04:39:13;;;;;;;49.92;20.88;;;;;;;5.90;100.00;100146.25;5042896;28;20056;-71
2021/01/28 04:41:41;;;;;;;49.75;20.13;;;;;;;5.81;100.00;100146.69;5046587;28;20566;-71
2021/01/28 04:44:07;;;;;;;72.63;24.23;;;;;;;5.76;100.00;100138.09;5060165;28;20435;-72
2021/01/28 04:46:47;;;;;;;62.45;21.52;;;;;;;5.83;100.00;100131.50;5046162;28;20452;-71
2021/01/28 04:49:58;;;;;;;59.17;20.58;;;;;;;5.82;100.00;100132.44;5045557;28;20044;-71
2021/01/28 04:52:34;;;;;;;41.55;17.33;;;;;;;5.83;100.00;100126.19;5043556;28;20403;-72
2021/01/28 04:55:18;;;;;;;44.55;17.23;;;;;;;5.97;100.00;100110.34;5046973;28;20102;-72
2021/01/28 04:57:50;;;;;;;38.85;16.52;;;;;;;5.99;100.00;100103.97;5029673;28;20025;-73
2021/01/28 05:00:20;;;;;;;38.78;15.98;;;;;;;5.86;100.00;100096.75;5045805;28;20064;-73
2021/01/28 05:03:32;;;;;;;36.83;14.98;;;;;;;5.88;100.00;100087.72;5045471;28;20037;-72
2021/01/28 05:06:12;;;;;;;33.65;15.15;;;;;;;5.75;100.00;100077.81;5049916;28;20037;-72
2021/01/28 05:08:45;;;;;;;31.83;13.75;;;;;;;5.75;100.00;100067.16;5062637;28;20124;-71
2021/01/28 05:11:32;;;;;;;32.20;13.70;;;;;;;5.70;100.00;100064.75;5047043;28;20083;-72
2021/01/28 05:14:25;;;;;;;31.95;14.57;;;;;;;5.70;100.00;100057.63;5042305;28;20074;-71
2021/01/28 05:17:20;;;;;;;34.72;13.68;;;;;;;5.54;100.00;100048.75;5040700;28;20067;-71
2021/01/28 05:19:52;;;;;;;;;;;;;;;5.65;100.00;100038.38;5046554;28;20055;-71
2021/01/28 05:22:21;;;;;;;31.55;14.27;;;;;;;5.54;100.00;100048.75;5050103;28;19913;-73
2021/01/28 05:25:17;;;;;;;32.67;12.18;;;;;;;5.52;100.00;100047.97;5038915;28;20075;-72
2021/01/28 05:27:58;;;;;;;27.58;12.38;;;;;;;5.63;100.00;100036.72;5059626;28;20037;-72
2021/01/28 05:30:41;;;;;;;28.52;12.27;;;;;;;5.58;100.00;100021.03;5045725;28;20025;-72
2021/01/28 05:33:25;;;;;;;24.45;11.00;;;;;;;5.57;100.00;100011.31;5060157;28;20036;-72
2021/01/28 05:36:21;;;;;;;25.42;11.68;;;;;;;5.47;100.00;99999.47;5047312;28;20507;-71
2021/01/28 05:39:29;;;;;;;22.92;11.43;;;;;;;5.55;100.00;99996.38;5046384;28;20059;-71
2021/01/28 05:42:26;;;;;;;25.92;11.75;;;;;;;5.45;100.00;99985.38;5045365;28;20035;-71
2021/01/28 05:44:55;;;;;;;27.25;11.07;;;;;;;5.52;100.00;99978.78;5048397;28;20409;-72
2021/01/28 05:47:29;;;;;;;21.02;11.05;;;;;;;5.52;100.00;99976.13;5061284;28;20024;-71
2021/01/28 05:50:29;;;;;;;24.33;10.88;;;;;;;5.56;100.00;99972.31;5060406;28;20071;-71
2021/01/28 05:53:12;;;;;;;22.25;10.85;;;;;;;5.46;100.00;99959.63;5056137;28;20033;-71
2021/01/28 05:55:41;;;;;;;23.23;11.00;;;;;;;5.52;100.00;99960.16;5061562;28;20344;-72
2021/01/28 05:58:32;;;;;;;23.92;10.88;;;;;;;5.51;100.00;99954.91;5044457;28;20406;-72
2021/01/28 06:01:08;;;;;;;23.63;11.30;;;;;;;5.40;100.00;99941.34;5041977;28;20037;-71
2021/01/28 06:04:12;;;;;;;21.13;10.35;;;;;;;5.44;100.00;99938.41;5048564;28;20127;-72
2021/01/28 06:07:13;;;;;;;19.88;10.23;;;;;;;5.43;100.00;99930.53;5051120;28;20107;-72
2021/01/28 06:10:32;;;;;;;19.42;10.20;;;;;;;5.38;100.00;99914.81;5043195;28;20131;-72
2021/01/28 06:13:34;;;;;;;20.33;10.50;;;;;;;5.37;100.00;99913.06;5043254;28;20045;-71
2021/01/28 06:16:28;;;;;;;17.77;9.82;;;;;;;5.38;100.00;99893.50;5060685;28;20124;-71
2021/01/28 06:19:16;;;;;;;24.13;10.85;;;;;;;5.42;100.00;99892.41;5059113;28;20272;-71
2021/01/28 06:21:55;;;;;;;20.77;10.98;;;;;;;5.41;100.00;99882.72;5049903;28;20099;-72
2021/01/28 06:24:42;;;;;;;19.98;9.05;;;;;;;5.41;100.00;99872.06;5048100;28;20083;-72
2021/01/28 06:27:44;;;;;;;21.45;11.55;;;;;;;5.39;100.00;99865.09;5035601;28;20635;-71
2021/01/28 06:30:47;;;;;;;20.88;11.13;;;;;;;5.39;100.00;99873.94;5048288;28;20068;-72
2021/01/28 06:33:42;;;;;;;18.92;10.75;;;;;;;5.49;100.00;99872.47;5052413;28;20076;-72
2021/01/28 06:36:56;;;;;;;24.80;12.05;;;;;;;5.38;100.00;99866.91;5051435;28;20406;-72
2021/01/28 06:39:52;;;;;;;19.08;10.55;;;;;;;5.38;100.00;99853.59;5046599;28;20070;-71
2021/01/28 06:42:54;;;;;;;24.38;11.70;;;;;;;5.36;100.00;99846.66;5049768;28;20079;-72
2021/01/28 06:45:55;;;;;;;19.23;10.02;;;;;;;5.42;100.00;99839.19;5060838;28;20068;-73
2021/01/28 06:48:34;;;;;;;20.13;10.27;;;;;;;5.34;100.00;99835.25;5058768;28;20418;-73
2021/01/28 06:51:20;;;;;;;20.80;10.40;;;;;;;5.31;100.00;99828.28;5065551;28;20082;-72
2021/01/28 06:53:58;;;;;;;17.67;9.32;;;;;;;5.36;100.00;99815.59;5045841;28;20403;-72
2021/01/28 06:57:40;;;;;;;18.27;10.25;;;;;;;5.34;100.00;99806.84;5047870;28;20102;-72
2021/01/28 07:00:21;;;;;;;16.05;9.85;;;;;;;5.36;100.00;99807.63;5036052;28;20064;-72
2021/01/28 07:03:07;;;;;;;20.05;10.02;;;;;;;5.36;100.00;99802.28;5046905;28;20037;-72
2021/01/28 07:05:45;;;;;;;16.23;9.07;;;;;;;5.34;100.00;99790.88;5034809;28;20083;-72
2021/01/28 07:08:26;;;;;;;21.20;9.77;;;;;;;5.29;100.00;99795.59;5048609;28;20041;-71
2021/01/28 07:11:30;;;;;;;16.85;8.90;;;;;;;5.22;100.00;99775.59;5044313;28;20113;-72
2021/01/28 07:14:23;;;;;;;17.75;9.32;;;;;;;5.24;100.00;99763.94;5065417;28;20056;-71
2021/01/28 07:17:23;;;;;;;15.88;9.88;;;;;;;5.25;100.00;99759.47;5063062;28;20379;-71
2021/01/28 07:19:52;;;;;;;14.88;8.60;;;;;;;5.24;100.00;99752.44;5049222;28;20064;-72
2021/01/28 07:22:27;;;;;;;17.45;9.10;;;;;;;5.25;100.00;99743.50;5063107;28;20040;-72
2021/01/28 07:25:21;;;;;;;17.23;8.85;;;;;;;5.21;100.00;99737.50;5046349;28;20029;-72
2021/01/28 07:28:05;;;;;;;13.43;8.45;;;;;;;5.16;100.00;99738.72;5045912;28;20172;-73
2021/01/28 07:30:33;;;;;;;16.73;8.85;;;;;;;5.25;100.00;99724.88;5049613;28;20029;-72
2021/01/28 07:32:59;;;;;;;14.45;8.32;;;;;;;5.25;100.00;99722.22;5052119;28;20082;-72
2021/01/28 07:35:48;;;;;;;16.50;8.90;;;;;;;5.17;100.00;99721.81;5047962;28;20063;-72
2021/01/28 07:38:27;;;;;;;15.13;8.77;;;;;;;5.22;100.00;99707.31;5049078;28;20502;-72
2021/01/28 07:41:14;;;;;;;16.70;8.07;;;;;;;5.22;100.00;99707.31;5051508;28;20047;-72
2021/01/28 07:44:24;;;;;;;15.50;8.70;;;;;;;5.12;100.00;99705.28;5047419;28;20310;-72
2021/01/28 07:46:53;;;;;;;16.60;9.02;;;;;;;5.21;100.00;99699.41;5046546;28;20048;-72
2021/01/28 07:49:25;;;;;;;14.50;8.13;;;;;;;5.18;100.00;99694.28;5047265;28;20037;-73
2021/01/28 07:52:36;;;;;;;18.25;9.38;;;;;;;5.06;100.00;99693.16;5034090;28;20119;-72
2021/01/28 07:55:02;;;;;;;16.08;8.73;;;;;;;5.05;100.00;99685.31;5048462;28;20037;-72
2021/01/28 07:57:28;;;;;;;16.38;8.63;;;;;;;5.16;100.00;99677.53;5048197;28;20033;-72
2021/01/28 08:00:13;;;;;;;12.68;7.60;;;;;;;5.06;100.00;99677.22;5062045;28;20048;-72
2021/01/28 08:02:40;;;;;;;17.08;9.10;;;;;;;5.17;100.00;99671.28;5047332;28;20033;-72
2021/01/28 08:05:08;;;;;;;15.32;8.25;;;;;;;5.06;100.00;99663.91;5048822;28;20043;-73
2021/01/28 08:07:36;;;;;;;17.65;8.45;;;;;;;5.12;100.00;99658.22;5059894;28;20041;-74
2021/01/28 08:10:23;;;;;;;17.23;9.20;;;;;;;5.11;100.00;99650.38;5048162;28;20507;-72
2021/01/28 08:12:53;;;;;;;16.88;9.05;;;;;;;5.13;100.00;99656.44;5046674;28;20075;-72
2021/01/28 08:15:31;;;;;;;17.65;9.18;;;;;;;5.13;100.00;99659.94;5046482;28;20033;-72
2021/01/28 08:18:19;;;;;;;15.50;8.80;;;;;;;5.16;100.00;99648.28;5042660;28;20060;-72
2021/01/28 08:20:46;;;;;;;17.85;8.90;;;;;;;5.15;100.00;99641.25;5046579;28;20033;-72
2021/01/28 08:23:26;;;;;;;15.35;9.48;;;;;;;5.14;100.00;99636.88;5047807;28;20104;-73
2021/01/28 08:26:00;;;;;;;15.38;9.02;;;;;;;5.23;100.00;99628.38;5041078;28;20036;-73
2021/01/28 08:28:30;;;;;;;14.82;7.95;;;;;;;5.21;100.00;99624.94;5043811;28;20127;-72
2021/01/28 08:31:00;;;;;;;13.82;7.97;;;;;;;5.19;100.00;99621.50;5040402;28;20033;-72
2021/01/28 08:33:28;;;;;;;15.38;8.57;;;;;;;5.17;100.00;99620.75;5046732;28;20526;-72
2021/01/28 08:35:56;;;;;;;12.82;7.75;;;;;;;5.12;100.00;99630.81;5047475;28;20033;-72
2021/01/28 08:38:34;;;;;;;13.52;8.07;;;;;;;5.17;100.00;99618.94;5049197;28;20142;-72
2021/01/28 08:41:14;;;;;;;13.38;8.02;;;;;;;5.13;100.00;99624.50;5047259;28;20443;-73
2021/01/28 08:43:40;;;;;;;13.30;8.00;;;;;;;5.10;100.00;99616.72;5048790;28;20093;-72
2021/01/28 08:46:19;;;;;;;14.63;7.47;;;;;;;5.16;100.00;99611.91;5044697;28;20040;-72
2021/01/28 08:48:46;;;;;;;14.02;7.13;;;;;;;5.06;100.00;99610.72;5044286;28;20037;-72
2021/01/28 08:51:16;;;;;;;15.70;8.38;;;;;;;5.02;100.00;99603.88;5046936;28;20025;-73
2021/01/28 08:53:46;;;;;;;16.52;7.70;;;;;;;5.17;100.00;99596.81;5061468;28;20037;-72
2021/01/28 08:56:20;;;;;;;17.58;8.50;;;;;;;5.09;100.00;99588.41;5047047;28;20433;-72
2021/01/28 08:58:46;;;;;;;12.73;7.18;;;;;;;5.05;100.00;99576.25;5046974;28;20540;-72
2021/01/28 09:01:14;;;;;;;13.05;7.40;;;;;;;5.15;100.00;99578.28;5048568;28;20486;-72
2021/01/28 09:03:58;;;;;;;15.52;8.40;;;;;;;5.09;100.00;99572.47;5046034;28;20021;-72
2021/01/28 09:06:24;;;;;;;15.00;7.57;;;;;;;5.07;100.00;99567.22;5047007;28;20119;-72
2021/01/28 09:09:13;;;;;;;11.32;6.15;;;;;;;5.10;100.00;99563.53;5046609;28;20055;-72
2021/01/28 09:11:38;;;;;;;10.50;5.88;;;;;;;5.17;100.00;99559.56;5044695;28;20028;-72
2021/01/28 09:14:29;;;;;;;11.05;6.43;;;;;;;5.15;100.00;99551.69;5060530;28;20371;-72
2021/01/28 09:16:58;;;;;;;9.05;5.70;;;;;;;5.20;100.00;99551.38;5045391;28;20076;-74
2021/01/28 09:19:25;;;;;;;14.60;5.85;;;;;;;5.16;100.00;99542.75;5048032;28;20047;-73
2021/01/28 09:21:54;;;;;;;9.52;5.78;;;;;;;5.09;100.00;99546.72;5028612;28;20091;-72
2021/01/28 09:24:26;;;;;;;11.05;5.88;;;;;;;5.08;100.00;99539.69;5047749;28;20365;-72
2021/01/28 09:27:24;;;;;;;9.60;5.80;;;;;;;5.10;100.00;99537.81;5041191;28;20861;-73
2021/01/28 09:29:51;;;;;;;9.10;5.78;;;;;;;5.11;100.00;99533.34;5045353;28;20525;-72
2021/01/28 09:32:22;;;;;;;12.25;5.85;;;;;;;5.16;100.00;99531.25;5046651;28;20064;-72
2021/01/28 09:35:14;;;;;;;9.73;5.35;;;;;;;5.13;100.00;99523.44;5047588;28;20635;-72
2021/01/28 09:38:06;;;;;;;11.10;5.97;;;;;;;5.14;100.00;99522.50;5046736;28;20033;-72
2021/01/28 09:40:36;;;;;;;9.73;5.45;;;;;;;5.17;100.00;99531.16;5048584;28;20215;-72
2021/01/28 09:43:20;;;;;;;8.15;4.90;;;;;;;5.17;100.00;99532.97;5051837;28;20076;-73
2021/01/28 09:46:10;;;;;;;9.80;5.70;;;;;;;5.09;100.00;99535.22;5050954;28;20156;-72
2021/01/28 09:48:38;;;;;;;12.13;5.53;;;;;;;5.08;100.00;99546.81;5049644;28;20048;-72
2021/01/28 09:51:07;;;;;;;10.48;5.18;;;;;;;5.25;100.00;99541.31;5051129;28;20029;-72
2021/01/28 09:53:34;;;;;;;10.75;5.40;;;;;;;5.16;100.00;99531.25;5052540;28;20418;-72
2021/01/28 09:55:59;;;;;;;9.65;5.00;;;;;;;5.09;100.00;99532.56;5065855;28;20033;-72
2021/01/28 09:58:25;;;;;;;10.50;5.72;;;;;;;5.17;100.00;99532.97;5051279;28;20037;-72
2021/01/28 10:00:51;;;;;;;8.52;5.30;;;;;;;5.17;100.00;99522.34;5049064;28;20483;-72
2021/01/28 10:03:17;;;;;;;8.85;4.88;;;;;;;5.32;100.00;99521.38;5031133;28;20090;-71
2021/01/28 10:05:43;;;;;;;7.18;4.90;;;;;;;5.22;100.00;99521.09;5062123;28;20127;-72
2021/01/28 10:08:08;;;;;;;9.73;5.47;;;;;;;5.23;100.00;99514.84;5050640;28;20546;-72
2021/01/28 10:10:38;;;;;;;6.53;4.43;;;;;;;5.31;100.00;99514.34;5052503;28;20568;-72
2021/01/28 10:13:16;;;;;;;7.72;5.05;;;;;;;5.21;100.00;99510.53;5050851;28;20041;-71
2021/01/28 10:15:42;;;;;;;9.38;4.75;;;;;;;5.29;100.00;99500.28;5048787;28;20037;-72
2021/01/28 10:18:08;;;;;;;8.02;5.20;;;;;;;5.27;100.00;99494.22;5050562;28;20357;-72
2021/01/28 10:20:33;;;;;;;9.82;5.03;;;;;;;5.31;100.00;99490.41;5051200;28;20037;-71
2021/01/28 10:23:02;;;;;;;9.25;5.43;;;;;;;5.49;100.00;99491.06;5050577;28;20387;-73
2021/01/28 10:25:28;;;;;;;10.10;5.35;;;;;;;5.41;100.00;99485.38;5049593;28;20124;-71
2021/01/28 10:27:54;;;;;;;10.02;5.25;;;;;;;5.36;100.00;99475.03;5050152;28;20123;-72
2021/01/28 10:30:22;;;;;;;9.63;5.35;;;;;;;5.48;100.00;99479.56;5050508;28;20132;-72
2021/01/28 10:32:48;;;;;;;7.53;4.57;;;;;;;5.47;100.00;99471.69;5065216;28;20044;-71
2021/01/28 10:35:20;;;;;;;13.60;6.18;;;;;;;5.46;100.00;99476.13;5048670;28;20131;-73
2021/01/28 10:37:45;;;;;;;11.57;5.40;;;;;;;5.47;100.00;99472.53;5050360;28;20033;-71
2021/01/28 10:40:11;;;;;;;9.48;5.20;;;;;;;5.40;100.00;99476.53;5048738;28;20040;-72
2021/01/28 10:42:42;;;;;;;8.05;4.90;;;;;;;5.52;100.00;99467.78;5048663;28;20039;-71
2021/01/28 10:45:19;;;;;;;9.73;5.18;;;;;;;5.54;100.00;99467.69;5050328;28;20445;-72
2021/01/28 10:47:45;;;;;;;9.27;5.15;;;;;;;5.65;100.00;99447.41;5050193;28;20456;-71
2021/01/28 10:50:11;;;;;;;11.65;5.63;;;;;;;5.66;100.00;99446.47;5048512;28;20040;-72
2021/01/28 10:52:37;;;;;;;10.30;5.40;;;;;;;5.79;100.00;99451.00;5050257;28;20037;-72
2021/01/28 10:55:05;;;;;;;10.02;5.07;;;;;;;5.78;100.00;99447.47;5050038;28;20078;-73
2021/01/28 10:57:31;;;;;;;8.57;4.82;;;;;;;5.80;100.00;99458.84;5048446;28;20031;-73
2021/01/28 10:59:57;;;;;;;9.02;4.45;;;;;;;5.79;100.00;99451.00;5065489;28;20089;-72
2021/01/28 11:02:22;;;;;;;7.45;4.38;;;;;;;5.85;100.00;99439.94;5048886;28;20040;-72
2021/01/28 11:04:48;;;;;;;8.82;4.38;;;;;;;5.89;100.00;99436.16;5049956;28;20037;-71
2021/01/28 11:07:13;;;;;;;9.40;5.05;;;;;;;5.86;100.00;99425.69;5047207;28;20105;-72
2021/01/28 11:09:38;;;;;;;9.88;5.57;;;;;;;5.95;100.00;99425.94;5049583;28;20048;-72
2021/01/28 11:12:05;;;;;;;9.52;5.40;;;;;;;6.00;100.00;99422.97;5050891;28;20032;-72
2021/01/28 11:14:30;;;;;;;11.38;6.35;;;;;;;5.97;100.00;99425.84;5049947;28;20037;-72
2021/01/28 11:16:56;;;;;;;11.45;6.70;;;;;;;5.90;100.00;99425.41;5049357;28;20044;-72
2021/01/28 11:19:21;;;;;;;15.00;7.47;;;;;;;6.07;100.00;99418.94;5048879;28;20033;-72
2021/01/28 11:21:47;;;;;;;10.88;6.63;;;;;;;6.09;100.00;99419.72;5049939;28;20048;-71
2021/01/28 11:24:12;;;;;;;10.63;6.57;;;;;;;6.14;100.00;99417.59;5046706;28;20066;-72
2021/01/28 11:26:38;;;;;;;13.52;7.10;;;;;;;6.15;100.00;99413.13;5049003;28;20076;-72
2021/01/28 11:29:04;;;;;;;12.70;7.50;;;;;;;6.17;100.00;99414.72;5046068;28;20033;-72
2021/01/28 11:31:31;;;;;;;14.13;6.97;;;;;;;6.16;100.00;99417.50;5047997;28;20090;-73
2021/01/28 11:33:56;;;;;;;9.55;6.53;;;;;;;6.07;100.00;99414.47;5048338;28;20068;-72
2021/01/28 11:36:22;;;;;;;12.50;7.18;;;;;;;6.09;100.00;99409.06;5048421;28;20076;-72
2021/01/28 11:38:47;;;;;;;14.02;7.13;;;;;;;6.10;100.00;99413.44;5055987;28;20195;-72
2021/01/28 11:41:12;;;;;;;10.68;6.82;;;;;;;6.13;100.00;99407.88;5051078;28;20048;-71
2021/01/28 11:43:38;;;;;;;10.75;7.20;;;;;;;6.13;100.00;99407.03;5048787;28;20511;-71
2021/01/28 11:46:03;;;;;;;9.13;6.00;;;;;;;6.22;100.00;99407.28;5056904;28;20446;-71
2021/01/28 11:48:29;;;;;;;9.57;7.07;;;;;;;6.18;100.00;99402.25;5047047;28;20107;-71
2021/01/28 11:50:54;;;;;;;9.57;5.80;;;;;;;6.23;100.00;99403.66;5052566;28;20478;-71
2021/01/28 11:53:20;;;;;;;8.90;6.05;;;;;;;6.29;100.00;99403.25;5050057;28;20486;-71
2021/01/28 11:55:45;;;;;;;10.25;6.00;;;;;;;6.22;100.00;99396.63;5046194;28;20037;-71
2021/01/28 11:58:12;;;;;;;8.35;5.65;;;;;;;6.18;100.00;99394.25;5049427;28;20029;-71
2021/01/28 12:00:38;;;;;;;9.73;5.15;;;;;;;6.37;100.00;99384.91;5048508;28;20155;-72